KOSH/OSH METAR and TAF weather

Enter ICAO airport designator
Station Type Date Time Source
KOSH METAR 2019/12/12 16:53 UTC NOAA

KOSH 121653Z 18009KT 2SM -SN BKN037 OVC047 M01/M04 A3009 RMK AO2 SNB38 SLP209 P0000 T10111044


Station Type Date Time Source
KOSH Decoded METAR 2019/12/12 16:53 UTC NOAA

WITTMAN REGIONAL AIRPORT, WI, United States (KOSH) 43-58N 88-33W 248M
Dec 12, 2019 - 11:53 AM EST / 2019.12.12 1653 UTC
Wind: from the S (180 degrees) at 10 MPH (9 KT):0
Visibility: 2 mile(s):0
Sky conditions: overcast
Weather: light snow
Precipitation last hour: A trace
Temperature: 30.0 F (-1.1 C)
Windchill: 21 F (-6 C):1
Dew Point: 24.1 F (-4.4 C)
Relative Humidity: 78%
Pressure (altimeter): 30.09 in. Hg (1018 hPa)
ob: KOSH 121653Z 18009KT 2SM -SN BKN037 OVC047 M01/M04 A3009 RMK AO2 SNB38 SLP209 P0000 T10111044
cycle: 17

Station Type Date Time Source
KOSH TAF 2019/07/30 12:39 UTC NOAA

TAF KOSH 301136Z 3012/3112 36006KT P6SM BKN050
TEMPO 3015/3017 BKN025
FM301700 01006KT P6SM BKN035
FM302200 04005KT P6SM SCT045
FM310200 11003KT P6SM SKC
FM310900 VRB03KT 6SM BR SKC

Example: see airport list